sensor_id;sensor_type;location;lat;lon;timestamp;P1;durP1;ratioP1;P2;durP2;ratioP2
9422;SDS011;65863;49.506;10.400;2022-12-18T00:02:33;33.03;;;15.90;;
9422;SDS011;65863;49.506;10.400;2022-12-18T00:05:16;33.60;;;15.70;;
9422;SDS011;65863;49.506;10.400;2022-12-18T00:08:01;37.50;;;17.77;;
9422;SDS011;65863;49.506;10.400;2022-12-18T00:10:45;31.20;;;15.80;;
9422;SDS011;65863;49.506;10.400;2022-12-18T00:13:29;30.90;;;17.03;;
9422;SDS011;65863;49.506;10.400;2022-12-18T00:16:14;37.93;;;16.67;;
9422;SDS011;65863;49.506;10.400;2022-12-18T00:19:01;34.03;;;18.00;;
9422;SDS011;65863;49.506;10.400;2022-12-18T00:21:47;40.23;;;18.20;;
9422;SDS011;65863;49.506;10.400;2022-12-18T00:24:31;36.80;;;16.53;;
9422;SDS011;65863;49.506;10.400;2022-12-18T00:27:15;25.50;;;14.13;;
9422;SDS011;65863;49.506;10.400;2022-12-18T00:29:59;32.87;;;16.13;;
9422;SDS011;65863;49.506;10.400;2022-12-18T00:32:43;31.93;;;16.00;;
9422;SDS011;65863;49.506;10.400;2022-12-18T00:35:27;29.73;;;16.23;;
9422;SDS011;65863;49.506;10.400;2022-12-18T00:38:11;32.87;;;14.70;;
9422;SDS011;65863;49.506;10.400;2022-12-18T00:40:54;24.00;;;12.67;;
9422;SDS011;65863;49.506;10.400;2022-12-18T00:43:39;22.97;;;13.20;;
9422;SDS011;65863;49.506;10.400;2022-12-18T00:46:23;23.80;;;13.67;;
9422;SDS011;65863;49.506;10.400;2022-12-18T00:49:07;22.70;;;12.10;;
9422;SDS011;65863;49.506;10.400;2022-12-18T00:51:51;18.93;;;11.13;;
9422;SDS011;65863;49.506;10.400;2022-12-18T00:54:39;23.00;;;10.70;;
9422;SDS011;65863;49.506;10.400;2022-12-18T00:57:22;17.60;;;10.07;;
9422;SDS011;65863;49.506;10.400;2022-12-18T01:00:08;17.20;;;10.00;;
9422;SDS011;65863;49.506;10.400;2022-12-18T01:02:54;20.23;;;11.30;;
9422;SDS011;65863;49.506;10.400;2022-12-18T01:05:41;20.57;;;10.80;;
9422;SDS011;65863;49.506;10.400;2022-12-18T01:08:26;25.50;;;10.37;;
9422;SDS011;65863;49.506;10.400;2022-12-18T01:11:11;19.23;;;11.03;;
9422;SDS011;65863;49.506;10.400;2022-12-18T01:13:58;24.27;;;11.33;;
9422;SDS011;65863;49.506;10.400;2022-12-18T01:16:42;22.60;;;12.80;;
9422;SDS011;65863;49.506;10.400;2022-12-18T01:19:27;21.57;;;10.17;;
9422;SDS011;65863;49.506;10.400;2022-12-18T01:22:12;19.53;;;10.87;;
9422;SDS011;65863;49.506;10.400;2022-12-18T01:24:56;21.53;;;11.63;;
9422;SDS011;65863;49.506;10.400;2022-12-18T01:27:40;23.73;;;13.03;;
9422;SDS011;65863;49.506;10.400;2022-12-18T01:30:24;30.63;;;12.27;;
9422;SDS011;65863;49.506;10.400;2022-12-18T01:33:10;22.13;;;11.40;;
9422;SDS011;65863;49.506;10.400;2022-12-18T01:35:54;19.40;;;11.30;;
9422;SDS011;65863;49.506;10.400;2022-12-18T01:38:38;22.47;;;12.03;;
9422;SDS011;65863;49.506;10.400;2022-12-18T01:41:23;29.97;;;13.13;;
9422;SDS011;65863;49.506;10.400;2022-12-18T01:47:33;27.60;;;13.13;;
9422;SDS011;65863;49.506;10.400;2022-12-18T01:50:31;22.37;;;11.47;;
9422;SDS011;65863;49.506;10.400;2022-12-18T01:53:23;19.67;;;12.13;;
9422;SDS011;65863;49.506;10.400;2022-12-18T01:56:08;19.57;;;12.03;;
9422;SDS011;65863;49.506;10.400;2022-12-18T02:01:44;25.23;;;13.23;;
9422;SDS011;65863;49.506;10.400;2022-12-18T02:04:28;21.67;;;12.90;;
9422;SDS011;65863;49.506;10.400;2022-12-18T02:10:06;23.53;;;13.03;;
9422;SDS011;65863;49.506;10.400;2022-12-18T02:26:12;26.50;;;12.03;;
9422;SDS011;65863;49.506;10.400;2022-12-18T02:29:05;23.17;;;12.80;;
9422;SDS011;65863;49.506;10.400;2022-12-18T02:31:56;29.93;;;11.97;;
9422;SDS011;65863;49.506;10.400;2022-12-18T02:34:43;20.83;;;11.07;;
9422;SDS011;65863;49.506;10.400;2022-12-18T02:37:32;32.07;;;13.23;;
9422;SDS011;65863;49.506;10.400;2022-12-18T02:40:20;21.83;;;12.07;;
9422;SDS011;65863;49.506;10.400;2022-12-18T02:43:09;25.03;;;13.70;;
9422;SDS011;65863;49.506;10.400;2022-12-18T02:45:56;21.60;;;12.43;;
9422;SDS011;65863;49.506;10.400;2022-12-18T02:48:45;21.87;;;12.87;;
9422;SDS011;65863;49.506;10.400;2022-12-18T02:54:43;28.23;;;15.03;;
9422;SDS011;65863;49.506;10.400;2022-12-18T02:57:46;20.87;;;12.00;;
9422;SDS011;65863;49.506;10.400;2022-12-18T03:00:44;22.37;;;12.87;;
9422;SDS011;65863;49.506;10.400;2022-12-18T03:04:10;23.23;;;12.60;;
9422;SDS011;65863;49.506;10.400;2022-12-18T03:07:09;16.90;;;10.50;;
9422;SDS011;65863;49.506;10.400;2022-12-18T03:09:59;22.07;;;12.33;;
9422;SDS011;65863;49.506;10.400;2022-12-18T03:12:47;29.43;;;15.27;;
9422;SDS011;65863;49.506;10.400;2022-12-18T03:15:37;25.20;;;13.23;;
9422;SDS011;65863;49.506;10.400;2022-12-18T03:19:01;26.97;;;14.23;;
9422;SDS011;65863;49.506;10.400;2022-12-18T03:21:48;27.40;;;13.73;;
9422;SDS011;65863;49.506;10.400;2022-12-18T03:24:35;28.30;;;13.93;;
9422;SDS011;65863;49.506;10.400;2022-12-18T03:27:23;28.33;;;14.67;;
9422;SDS011;65863;49.506;10.400;2022-12-18T03:30:13;28.13;;;14.60;;
9422;SDS011;65863;49.506;10.400;2022-12-18T03:33:05;28.37;;;15.93;;
9422;SDS011;65863;49.506;10.400;2022-12-18T03:35:54;26.30;;;14.50;;
9422;SDS011;65863;49.506;10.400;2022-12-18T03:38:38;33.67;;;15.90;;
9422;SDS011;65863;49.506;10.400;2022-12-18T03:45:02;26.77;;;13.27;;
9422;SDS011;65863;49.506;10.400;2022-12-18T03:51:05;24.47;;;11.57;;
9422;SDS011;65863;49.506;10.400;2022-12-18T03:53:57;28.37;;;13.47;;
9422;SDS011;65863;49.506;10.400;2022-12-18T03:56:49;37.13;;;19.63;;
9422;SDS011;65863;49.506;10.400;2022-12-18T03:59:41;33.13;;;17.73;;
9422;SDS011;65863;49.506;10.400;2022-12-18T04:02:28;35.27;;;17.93;;
9422;SDS011;65863;49.506;10.400;2022-12-18T04:05:17;34.07;;;18.63;;
9422;SDS011;65863;49.506;10.400;2022-12-18T04:08:04;35.77;;;17.53;;
9422;SDS011;65863;49.506;10.400;2022-12-18T04:10:52;33.13;;;17.37;;
9422;SDS011;65863;49.506;10.400;2022-12-18T04:13:37;44.27;;;20.80;;
9422;SDS011;65863;49.506;10.400;2022-12-18T04:16:25;30.70;;;17.87;;
9422;SDS011;65863;49.506;10.400;2022-12-18T04:19:13;36.93;;;18.57;;
9422;SDS011;65863;49.506;10.400;2022-12-18T04:21:59;32.63;;;17.40;;
9422;SDS011;65863;49.506;10.400;2022-12-18T04:24:45;31.27;;;17.10;;
9422;SDS011;65863;49.506;10.400;2022-12-18T04:27:37;32.13;;;18.27;;
9422;SDS011;65863;49.506;10.400;2022-12-18T04:30:22;35.47;;;17.37;;
9422;SDS011;65863;49.506;10.400;2022-12-18T04:33:10;39.30;;;19.77;;
9422;SDS011;65863;49.506;10.400;2022-12-18T04:35:56;36.43;;;17.97;;
9422;SDS011;65863;49.506;10.400;2022-12-18T04:38:41;38.97;;;18.70;;
9422;SDS011;65863;49.506;10.400;2022-12-18T04:41:29;33.63;;;18.23;;
9422;SDS011;65863;49.506;10.400;2022-12-18T04:44:13;40.90;;;20.10;;
9422;SDS011;65863;49.506;10.400;2022-12-18T04:46:57;39.33;;;19.97;;
9422;SDS011;65863;49.506;10.400;2022-12-18T04:49:42;46.23;;;20.87;;
9422;SDS011;65863;49.506;10.400;2022-12-18T04:52:26;39.00;;;19.73;;
9422;SDS011;65863;49.506;10.400;2022-12-18T04:55:11;28.87;;;15.43;;
9422;SDS011;65863;49.506;10.400;2022-12-18T04:57:55;20.47;;;11.30;;
9422;SDS011;65863;49.506;10.400;2022-12-18T05:00:40;41.47;;;18.83;;
9422;SDS011;65863;49.506;10.400;2022-12-18T05:03:24;30.70;;;14.83;;
9422;SDS011;65863;49.506;10.400;2022-12-18T05:06:11;25.90;;;15.20;;
9422;SDS011;65863;49.506;10.400;2022-12-18T05:08:56;39.17;;;18.00;;
9422;SDS011;65863;49.506;10.400;2022-12-18T05:11:40;40.60;;;19.17;;
9422;SDS011;65863;49.506;10.400;2022-12-18T05:14:25;36.30;;;19.60;;
9422;SDS011;65863;49.506;10.400;2022-12-18T05:17:11;41.27;;;21.27;;
9422;SDS011;65863;49.506;10.400;2022-12-18T05:19:56;36.07;;;17.07;;
9422;SDS011;65863;49.506;10.400;2022-12-18T05:22:40;32.70;;;17.50;;
9422;SDS011;65863;49.506;10.400;2022-12-18T05:25:25;28.97;;;14.33;;
9422;SDS011;65863;49.506;10.400;2022-12-18T05:28:10;33.50;;;15.57;;
9422;SDS011;65863;49.506;10.400;2022-12-18T05:30:55;32.03;;;16.20;;
9422;SDS011;65863;49.506;10.400;2022-12-18T05:33:41;33.23;;;17.30;;
9422;SDS011;65863;49.506;10.400;2022-12-18T05:36:25;22.57;;;11.87;;
9422;SDS011;65863;49.506;10.400;2022-12-18T05:39:10;39.17;;;20.67;;
9422;SDS011;65863;49.506;10.400;2022-12-18T05:41:54;31.93;;;15.00;;
9422;SDS011;65863;49.506;10.400;2022-12-18T05:44:40;34.70;;;16.93;;
9422;SDS011;65863;49.506;10.400;2022-12-18T05:47:25;35.20;;;17.77;;
9422;SDS011;65863;49.506;10.400;2022-12-18T05:50:13;41.60;;;21.13;;
9422;SDS011;65863;49.506;10.400;2022-12-18T05:52:58;37.73;;;17.50;;
9422;SDS011;65863;49.506;10.400;2022-12-18T05:55:43;37.00;;;18.43;;
9422;SDS011;65863;49.506;10.400;2022-12-18T05:58:29;46.97;;;23.30;;
9422;SDS011;65863;49.506;10.400;2022-12-18T06:01:18;32.47;;;18.60;;
9422;SDS011;65863;49.506;10.400;2022-12-18T06:04:05;50.67;;;22.53;;
9422;SDS011;65863;49.506;10.400;2022-12-18T06:06:49;44.40;;;18.30;;
9422;SDS011;65863;49.506;10.400;2022-12-18T06:09:34;48.20;;;21.40;;
9422;SDS011;65863;49.506;10.400;2022-12-18T06:12:19;27.07;;;13.53;;
9422;SDS011;65863;49.506;10.400;2022-12-18T06:15:03;45.67;;;19.93;;
9422;SDS011;65863;49.506;10.400;2022-12-18T06:17:48;54.70;;;24.43;;
9422;SDS011;65863;49.506;10.400;2022-12-18T06:20:32;36.43;;;19.37;;
9422;SDS011;65863;49.506;10.400;2022-12-18T06:23:17;41.10;;;19.70;;
9422;SDS011;65863;49.506;10.400;2022-12-18T06:26:06;40.10;;;19.53;;
9422;SDS011;65863;49.506;10.400;2022-12-18T06:28:52;30.07;;;14.67;;
9422;SDS011;65863;49.506;10.400;2022-12-18T06:31:36;40.47;;;19.93;;
9422;SDS011;65863;49.506;10.400;2022-12-18T06:34:21;39.43;;;18.63;;
9422;SDS011;65863;49.506;10.400;2022-12-18T06:37:05;20.27;;;11.00;;
9422;SDS011;65863;49.506;10.400;2022-12-18T06:39:50;35.90;;;18.33;;
9422;SDS011;65863;49.506;10.400;2022-12-18T06:42:34;59.03;;;25.00;;
9422;SDS011;65863;49.506;10.400;2022-12-18T06:45:18;33.20;;;16.73;;
9422;SDS011;65863;49.506;10.400;2022-12-18T06:48:02;39.43;;;20.10;;
9422;SDS011;65863;49.506;10.400;2022-12-18T06:50:46;57.10;;;26.57;;
9422;SDS011;65863;49.506;10.400;2022-12-18T06:53:31;51.43;;;24.73;;
9422;SDS011;65863;49.506;10.400;2022-12-18T06:56:16;36.57;;;18.10;;
9422;SDS011;65863;49.506;10.400;2022-12-18T06:59:00;32.17;;;17.30;;
9422;SDS011;65863;49.506;10.400;2022-12-18T07:01:44;17.93;;;11.07;;
9422;SDS011;65863;49.506;10.400;2022-12-18T07:04:29;41.27;;;20.20;;
9422;SDS011;65863;49.506;10.400;2022-12-18T07:07:13;39.20;;;19.13;;
9422;SDS011;65863;49.506;10.400;2022-12-18T07:13:03;36.97;;;17.93;;
9422;SDS011;65863;49.506;10.400;2022-12-18T07:15:47;72.20;;;27.73;;
9422;SDS011;65863;49.506;10.400;2022-12-18T07:18:31;62.47;;;27.83;;
9422;SDS011;65863;49.506;10.400;2022-12-18T07:21:15;69.47;;;31.23;;
9422;SDS011;65863;49.506;10.400;2022-12-18T07:24:01;58.20;;;26.07;;
9422;SDS011;65863;49.506;10.400;2022-12-18T07:26:46;46.00;;;20.33;;
9422;SDS011;65863;49.506;10.400;2022-12-18T07:29:30;53.20;;;27.43;;
9422;SDS011;65863;49.506;10.400;2022-12-18T07:32:14;52.30;;;24.07;;
9422;SDS011;65863;49.506;10.400;2022-12-18T07:34:58;29.73;;;15.60;;
9422;SDS011;65863;49.506;10.400;2022-12-18T07:37:47;38.23;;;18.77;;
9422;SDS011;65863;49.506;10.400;2022-12-18T07:40:32;37.97;;;18.23;;
9422;SDS011;65863;49.506;10.400;2022-12-18T07:43:16;32.47;;;16.97;;
9422;SDS011;65863;49.506;10.400;2022-12-18T07:46:02;40.30;;;19.67;;
9422;SDS011;65863;49.506;10.400;2022-12-18T07:48:46;33.47;;;18.03;;
9422;SDS011;65863;49.506;10.400;2022-12-18T07:51:31;30.40;;;14.77;;
9422;SDS011;65863;49.506;10.400;2022-12-18T07:54:15;38.83;;;19.20;;
9422;SDS011;65863;49.506;10.400;2022-12-18T07:56:59;38.00;;;18.83;;
9422;SDS011;65863;49.506;10.400;2022-12-18T07:59:43;34.50;;;15.93;;
9422;SDS011;65863;49.506;10.400;2022-12-18T08:02:29;33.97;;;16.23;;
9422;SDS011;65863;49.506;10.400;2022-12-18T08:05:14;37.13;;;18.03;;
9422;SDS011;65863;49.506;10.400;2022-12-18T08:07:58;36.63;;;18.43;;
9422;SDS011;65863;49.506;10.400;2022-12-18T08:10:42;33.10;;;18.47;;
9422;SDS011;65863;49.506;10.400;2022-12-18T08:13:26;47.90;;;21.97;;
9422;SDS011;65863;49.506;10.400;2022-12-18T08:16:11;43.10;;;20.57;;
9422;SDS011;65863;49.506;10.400;2022-12-18T08:18:55;38.53;;;16.83;;
9422;SDS011;65863;49.506;10.400;2022-12-18T08:21:40;33.60;;;15.23;;
9422;SDS011;65863;49.506;10.400;2022-12-18T08:24:25;38.60;;;17.07;;
9422;SDS011;65863;49.506;10.400;2022-12-18T08:27:09;31.47;;;16.90;;
9422;SDS011;65863;49.506;10.400;2022-12-18T08:29:53;32.47;;;17.23;;
9422;SDS011;65863;49.506;10.400;2022-12-18T08:32:37;29.70;;;15.03;;
9422;SDS011;65863;49.506;10.400;2022-12-18T08:35:21;31.27;;;16.33;;
9422;SDS011;65863;49.506;10.400;2022-12-18T08:38:05;31.43;;;15.87;;
9422;SDS011;65863;49.506;10.400;2022-12-18T08:40:49;32.37;;;16.73;;
9422;SDS011;65863;49.506;10.400;2022-12-18T08:43:37;28.40;;;13.33;;
9422;SDS011;65863;49.506;10.400;2022-12-18T08:46:41;22.50;;;11.83;;
9422;SDS011;65863;49.506;10.400;2022-12-18T08:49:26;31.57;;;14.97;;
9422;SDS011;65863;49.506;10.400;2022-12-18T08:52:10;30.47;;;14.77;;
9422;SDS011;65863;49.506;10.400;2022-12-18T08:54:54;33.27;;;17.30;;
9422;SDS011;65863;49.506;10.400;2022-12-18T08:57:39;34.67;;;16.47;;
9422;SDS011;65863;49.506;10.400;2022-12-18T09:00:23;67.70;;;33.80;;
9422;SDS011;65863;49.506;10.400;2022-12-18T09:03:14;46.07;;;22.97;;
9422;SDS011;65863;49.506;10.400;2022-12-18T09:06:00;36.17;;;18.93;;
9422;SDS011;65863;49.506;10.400;2022-12-18T09:08:44;38.00;;;19.43;;
9422;SDS011;65863;49.506;10.400;2022-12-18T09:11:29;38.73;;;21.00;;
9422;SDS011;65863;49.506;10.400;2022-12-18T09:14:14;31.00;;;15.60;;
9422;SDS011;65863;49.506;10.400;2022-12-18T09:16:58;30.10;;;14.10;;
9422;SDS011;65863;49.506;10.400;2022-12-18T09:19:42;23.63;;;12.53;;
9422;SDS011;65863;49.506;10.400;2022-12-18T09:22:26;31.87;;;17.20;;
9422;SDS011;65863;49.506;10.400;2022-12-18T09:25:10;25.00;;;13.87;;
9422;SDS011;65863;49.506;10.400;2022-12-18T09:27:54;27.77;;;15.30;;
9422;SDS011;65863;49.506;10.400;2022-12-18T09:30:39;39.57;;;17.03;;
9422;SDS011;65863;49.506;10.400;2022-12-18T09:33:27;29.17;;;14.37;;
9422;SDS011;65863;49.506;10.400;2022-12-18T09:36:12;41.57;;;19.83;;
9422;SDS011;65863;49.506;10.400;2022-12-18T09:38:59;35.50;;;16.83;;
9422;SDS011;65863;49.506;10.400;2022-12-18T09:41:53;33.50;;;16.63;;
9422;SDS011;65863;49.506;10.400;2022-12-18T09:44:40;24.47;;;13.33;;
9422;SDS011;65863;49.506;10.400;2022-12-18T09:47:38;32.23;;;15.33;;
9422;SDS011;65863;49.506;10.400;2022-12-18T09:50:29;25.33;;;13.67;;
9422;SDS011;65863;49.506;10.400;2022-12-18T09:53:19;27.87;;;14.40;;
9422;SDS011;65863;49.506;10.400;2022-12-18T09:56:06;29.00;;;14.33;;
9422;SDS011;65863;49.506;10.400;2022-12-18T09:58:59;25.80;;;14.23;;
9422;SDS011;65863;49.506;10.400;2022-12-18T10:01:45;27.43;;;15.57;;
9422;SDS011;65863;49.506;10.400;2022-12-18T10:04:29;27.97;;;14.20;;
9422;SDS011;65863;49.506;10.400;2022-12-18T10:07:24;23.97;;;13.50;;
9422;SDS011;65863;49.506;10.400;2022-12-18T10:10:21;25.83;;;12.10;;
9422;SDS011;65863;49.506;10.400;2022-12-18T10:13:13;26.70;;;13.33;;
9422;SDS011;65863;49.506;10.400;2022-12-18T10:16:19;28.90;;;14.00;;
9422;SDS011;65863;49.506;10.400;2022-12-18T10:25:26;25.07;;;12.60;;
9422;SDS011;65863;49.506;10.400;2022-12-18T10:28:25;26.30;;;12.87;;
9422;SDS011;65863;49.506;10.400;2022-12-18T10:31:14;30.57;;;14.03;;
9422;SDS011;65863;49.506;10.400;2022-12-18T10:34:00;25.90;;;14.20;;
9422;SDS011;65863;49.506;10.400;2022-12-18T10:36:44;24.07;;;13.50;;
9422;SDS011;65863;49.506;10.400;2022-12-18T10:39:28;24.07;;;13.50;;
9422;SDS011;65863;49.506;10.400;2022-12-18T10:42:17;24.83;;;14.43;;
9422;SDS011;65863;49.506;10.400;2022-12-18T10:45:09;22.63;;;12.47;;
9422;SDS011;65863;49.506;10.400;2022-12-18T10:47:57;15.73;;;9.17;;
9422;SDS011;65863;49.506;10.400;2022-12-18T10:50:41;33.50;;;20.93;;
9422;SDS011;65863;49.506;10.400;2022-12-18T10:53:42;25.77;;;14.70;;
9422;SDS011;65863;49.506;10.400;2022-12-18T10:56:35;16.47;;;9.73;;
9422;SDS011;65863;49.506;10.400;2022-12-18T10:59:20;36.57;;;16.07;;
9422;SDS011;65863;49.506;10.400;2022-12-18T11:02:07;26.03;;;14.80;;
9422;SDS011;65863;49.506;10.400;2022-12-18T11:05:22;34.77;;;16.87;;
9422;SDS011;65863;49.506;10.400;2022-12-18T11:08:19;23.53;;;11.73;;
9422;SDS011;65863;49.506;10.400;2022-12-18T11:11:18;29.63;;;13.40;;
9422;SDS011;65863;49.506;10.400;2022-12-18T11:14:05;36.40;;;18.87;;
9422;SDS011;65863;49.506;10.400;2022-12-18T11:16:56;27.33;;;14.70;;
9422;SDS011;65863;49.506;10.400;2022-12-18T11:19:42;21.60;;;13.23;;
9422;SDS011;65863;49.506;10.400;2022-12-18T11:22:30;23.50;;;12.53;;
9422;SDS011;65863;49.506;10.400;2022-12-18T11:25:18;21.77;;;12.13;;
9422;SDS011;65863;49.506;10.400;2022-12-18T11:28:04;21.73;;;12.73;;
9422;SDS011;65863;49.506;10.400;2022-12-18T11:31:23;23.40;;;13.53;;
9422;SDS011;65863;49.506;10.400;2022-12-18T11:37:01;23.60;;;14.27;;
9422;SDS011;65863;49.506;10.400;2022-12-18T11:39:52;20.80;;;11.17;;
9422;SDS011;65863;49.506;10.400;2022-12-18T11:42:51;23.70;;;13.27;;
9422;SDS011;65863;49.506;10.400;2022-12-18T11:46:26;22.47;;;13.13;;
9422;SDS011;65863;49.506;10.400;2022-12-18T11:48:59;21.93;;;12.43;;
9422;SDS011;65863;49.506;10.400;2022-12-18T11:55:32;20.27;;;9.83;;
9422;SDS011;65863;49.506;10.400;2022-12-18T12:04:22;21.10;;;11.53;;
9422;SDS011;65863;49.506;10.400;2022-12-18T12:16:27;28.97;;;15.53;;
9422;SDS011;65863;49.506;10.400;2022-12-18T12:25:49;51.27;;;21.73;;
9422;SDS011;65863;49.506;10.400;2022-12-18T12:28:48;25.53;;;12.50;;
9422;SDS011;65863;49.506;10.400;2022-12-18T12:31:59;27.50;;;15.80;;
9422;SDS011;65863;49.506;10.400;2022-12-18T12:37:49;22.90;;;12.50;;
9422;SDS011;65863;49.506;10.400;2022-12-18T12:40:48;23.90;;;13.50;;
9422;SDS011;65863;49.506;10.400;2022-12-18T12:43:46;25.97;;;14.50;;
9422;SDS011;65863;49.506;10.400;2022-12-18T12:46:34;21.87;;;12.53;;
9422;SDS011;65863;49.506;10.400;2022-12-18T12:49:24;27.07;;;12.80;;
9422;SDS011;65863;49.506;10.400;2022-12-18T12:52:12;20.80;;;12.80;;
9422;SDS011;65863;49.506;10.400;2022-12-18T12:55:02;22.33;;;12.53;;
9422;SDS011;65863;49.506;10.400;2022-12-18T12:57:56;25.93;;;14.17;;
9422;SDS011;65863;49.506;10.400;2022-12-18T13:06:56;21.93;;;14.13;;
9422;SDS011;65863;49.506;10.400;2022-12-18T13:13:09;20.17;;;12.67;;
9422;SDS011;65863;49.506;10.400;2022-12-18T13:16:05;24.27;;;13.80;;
9422;SDS011;65863;49.506;10.400;2022-12-18T13:18:52;27.67;;;15.37;;
9422;SDS011;65863;49.506;10.400;2022-12-18T13:21:38;33.80;;;18.73;;
9422;SDS011;65863;49.506;10.400;2022-12-18T13:24:26;22.17;;;14.53;;
9422;SDS011;65863;49.506;10.400;2022-12-18T13:39:10;44.10;;;22.63;;
9422;SDS011;65863;49.506;10.400;2022-12-18T13:44:51;23.63;;;15.27;;
9422;SDS011;65863;49.506;10.400;2022-12-18T13:47:36;19.57;;;11.87;;
9422;SDS011;65863;49.506;10.400;2022-12-18T13:50:24;23.07;;;14.27;;
9422;SDS011;65863;49.506;10.400;2022-12-18T13:53:15;26.73;;;14.97;;
9422;SDS011;65863;49.506;10.400;2022-12-18T13:56:05;26.37;;;14.60;;
9422;SDS011;65863;49.506;10.400;2022-12-18T13:59:10;25.47;;;15.67;;
9422;SDS011;65863;49.506;10.400;2022-12-18T14:05:21;25.87;;;14.33;;
9422;SDS011;65863;49.506;10.400;2022-12-18T14:08:15;24.40;;;13.80;;
9422;SDS011;65863;49.506;10.400;2022-12-18T14:11:00;25.70;;;14.93;;
9422;SDS011;65863;49.506;10.400;2022-12-18T14:13:45;26.00;;;13.63;;
9422;SDS011;65863;49.506;10.400;2022-12-18T14:16:29;23.87;;;13.53;;
9422;SDS011;65863;49.506;10.400;2022-12-18T14:19:14;28.70;;;14.23;;
9422;SDS011;65863;49.506;10.400;2022-12-18T14:22:01;27.03;;;14.33;;
9422;SDS011;65863;49.506;10.400;2022-12-18T14:24:45;28.73;;;14.37;;
9422;SDS011;65863;49.506;10.400;2022-12-18T14:27:29;23.50;;;14.73;;
9422;SDS011;65863;49.506;10.400;2022-12-18T14:30:23;26.87;;;15.13;;
9422;SDS011;65863;49.506;10.400;2022-12-18T14:33:13;21.73;;;13.03;;
9422;SDS011;65863;49.506;10.400;2022-12-18T14:36:05;22.27;;;13.47;;
9422;SDS011;65863;49.506;10.400;2022-12-18T14:38:53;24.53;;;13.73;;
9422;SDS011;65863;49.506;10.400;2022-12-18T14:41:38;29.77;;;16.33;;
9422;SDS011;65863;49.506;10.400;2022-12-18T14:44:22;27.30;;;15.37;;
9422;SDS011;65863;49.506;10.400;2022-12-18T14:47:12;25.57;;;14.93;;
9422;SDS011;65863;49.506;10.400;2022-12-18T14:49:58;28.17;;;15.40;;
9422;SDS011;65863;49.506;10.400;2022-12-18T14:52:42;26.57;;;15.37;;
9422;SDS011;65863;49.506;10.400;2022-12-18T14:55:26;24.50;;;13.77;;
9422;SDS011;65863;49.506;10.400;2022-12-18T14:58:10;29.40;;;15.47;;
9422;SDS011;65863;49.506;10.400;2022-12-18T15:00:59;29.43;;;15.97;;
9422;SDS011;65863;49.506;10.400;2022-12-18T15:03:43;25.67;;;14.80;;
9422;SDS011;65863;49.506;10.400;2022-12-18T15:06:29;26.93;;;16.40;;
9422;SDS011;65863;49.506;10.400;2022-12-18T15:09:20;25.60;;;15.77;;
9422;SDS011;65863;49.506;10.400;2022-12-18T15:12:19;25.90;;;16.93;;
9422;SDS011;65863;49.506;10.400;2022-12-18T15:18:21;28.80;;;16.27;;
9422;SDS011;65863;49.506;10.400;2022-12-18T15:21:18;25.03;;;14.30;;
9422;SDS011;65863;49.506;10.400;2022-12-18T15:24:03;24.37;;;15.00;;
9422;SDS011;65863;49.506;10.400;2022-12-18T15:26:47;26.03;;;15.10;;
9422;SDS011;65863;49.506;10.400;2022-12-18T15:29:31;25.97;;;15.73;;
9422;SDS011;65863;49.506;10.400;2022-12-18T15:32:17;27.50;;;16.83;;
9422;SDS011;65863;49.506;10.400;2022-12-18T15:35:23;30.07;;;16.70;;
9422;SDS011;65863;49.506;10.400;2022-12-18T15:38:08;43.70;;;23.40;;
9422;SDS011;65863;49.506;10.400;2022-12-18T15:40:52;26.57;;;15.57;;
9422;SDS011;65863;49.506;10.400;2022-12-18T15:43:37;26.13;;;15.67;;
9422;SDS011;65863;49.506;10.400;2022-12-18T15:46:22;27.10;;;14.67;;
9422;SDS011;65863;49.506;10.400;2022-12-18T15:49:08;25.97;;;14.90;;
9422;SDS011;65863;49.506;10.400;2022-12-18T15:51:52;28.37;;;15.13;;
9422;SDS011;65863;49.506;10.400;2022-12-18T15:54:40;30.60;;;16.67;;
9422;SDS011;65863;49.506;10.400;2022-12-18T15:57:47;25.53;;;15.73;;
9422;SDS011;65863;49.506;10.400;2022-12-18T16:00:38;26.20;;;16.10;;
9422;SDS011;65863;49.506;10.400;2022-12-18T16:03:23;29.23;;;16.60;;
9422;SDS011;65863;49.506;10.400;2022-12-18T16:06:08;27.40;;;16.47;;
9422;SDS011;65863;49.506;10.400;2022-12-18T16:08:53;27.97;;;15.97;;
9422;SDS011;65863;49.506;10.400;2022-12-18T16:11:37;31.23;;;16.80;;
9422;SDS011;65863;49.506;10.400;2022-12-18T16:14:26;31.50;;;19.63;;
9422;SDS011;65863;49.506;10.400;2022-12-18T16:17:13;33.77;;;19.67;;
9422;SDS011;65863;49.506;10.400;2022-12-18T16:19:58;32.77;;;19.43;;
9422;SDS011;65863;49.506;10.400;2022-12-18T16:22:42;32.00;;;17.83;;
9422;SDS011;65863;49.506;10.400;2022-12-18T16:25:29;31.90;;;17.67;;
9422;SDS011;65863;49.506;10.400;2022-12-18T16:28:14;32.50;;;18.00;;
9422;SDS011;65863;49.506;10.400;2022-12-18T16:30:58;31.83;;;17.77;;
9422;SDS011;65863;49.506;10.400;2022-12-18T16:33:42;26.80;;;14.97;;
9422;SDS011;65863;49.506;10.400;2022-12-18T16:36:27;30.77;;;16.93;;
9422;SDS011;65863;49.506;10.400;2022-12-18T16:39:11;32.23;;;17.00;;
9422;SDS011;65863;49.506;10.400;2022-12-18T16:41:55;34.67;;;17.70;;
9422;SDS011;65863;49.506;10.400;2022-12-18T16:44:39;26.43;;;16.00;;
9422;SDS011;65863;49.506;10.400;2022-12-18T16:47:24;34.13;;;18.50;;
9422;SDS011;65863;49.506;10.400;2022-12-18T16:50:08;29.40;;;15.83;;
9422;SDS011;65863;49.506;10.400;2022-12-18T16:52:53;30.87;;;17.33;;
9422;SDS011;65863;49.506;10.400;2022-12-18T16:55:37;30.20;;;18.90;;
9422;SDS011;65863;49.506;10.400;2022-12-18T16:58:21;33.33;;;18.00;;
9422;SDS011;65863;49.506;10.400;2022-12-18T17:01:06;31.73;;;17.57;;
9422;SDS011;65863;49.506;10.400;2022-12-18T17:06:41;33.93;;;20.50;;
9422;SDS011;65863;49.506;10.400;2022-12-18T17:09:26;33.13;;;17.93;;
9422;SDS011;65863;49.506;10.400;2022-12-18T17:12:10;29.93;;;17.77;;
9422;SDS011;65863;49.506;10.400;2022-12-18T17:14:54;22.53;;;12.57;;
9422;SDS011;65863;49.506;10.400;2022-12-18T17:17:42;29.40;;;18.07;;
9422;SDS011;65863;49.506;10.400;2022-12-18T17:20:26;29.20;;;17.83;;
9422;SDS011;65863;49.506;10.400;2022-12-18T17:23:09;30.43;;;17.43;;
9422;SDS011;65863;49.506;10.400;2022-12-18T17:25:54;27.73;;;17.17;;
9422;SDS011;65863;49.506;10.400;2022-12-18T17:28:39;27.80;;;16.83;;
9422;SDS011;65863;49.506;10.400;2022-12-18T17:31:25;29.13;;;16.73;;
9422;SDS011;65863;49.506;10.400;2022-12-18T17:34:10;29.43;;;18.00;;
9422;SDS011;65863;49.506;10.400;2022-12-18T17:36:55;27.07;;;16.97;;
9422;SDS011;65863;49.506;10.400;2022-12-18T17:39:39;28.20;;;16.33;;
9422;SDS011;65863;49.506;10.400;2022-12-18T17:42:23;30.47;;;16.80;;
9422;SDS011;65863;49.506;10.400;2022-12-18T17:45:09;30.40;;;17.03;;
9422;SDS011;65863;49.506;10.400;2022-12-18T17:47:52;33.87;;;18.47;;
9422;SDS011;65863;49.506;10.400;2022-12-18T17:53:23;31.27;;;18.07;;
9422;SDS011;65863;49.506;10.400;2022-12-18T17:56:09;38.75;;;26.70;;
9422;SDS011;65863;49.506;10.400;2022-12-18T17:58:56;33.30;;;19.70;;
9422;SDS011;65863;49.506;10.400;2022-12-18T18:01:40;30.53;;;16.20;;
9422;SDS011;65863;49.506;10.400;2022-12-18T18:04:24;29.73;;;17.20;;
9422;SDS011;65863;49.506;10.400;2022-12-18T18:07:08;26.83;;;15.73;;
9422;SDS011;65863;49.506;10.400;2022-12-18T18:09:52;25.63;;;16.40;;